createdAt,value
2019-02-24T00:01:21.181Z,18.60
2019-02-24T00:03:50.460Z,17.80
2019-02-24T00:06:19.643Z,18.53
2019-02-24T00:08:49.099Z,18.97
2019-02-24T00:11:18.069Z,14.77
2019-02-24T00:13:47.088Z,18.50
2019-02-24T00:16:16.045Z,20.80
2019-02-24T00:18:45.057Z,17.70
2019-02-24T00:21:14.037Z,17.60
2019-02-24T00:23:43.092Z,16.60
2019-02-24T00:26:12.045Z,18.40
2019-02-24T00:28:41.029Z,16.23
2019-02-24T00:31:10.059Z,22.13
2019-02-24T00:33:39.233Z,23.63
2019-02-24T00:36:08.227Z,24.87
2019-02-24T00:38:37.375Z,19.70
2019-02-24T00:41:06.497Z,17.17
2019-02-24T00:43:35.666Z,20.00
2019-02-24T00:46:04.665Z,19.47
2019-02-24T00:48:33.740Z,24.83
2019-02-24T00:51:02.757Z,34.10
2019-02-24T00:53:31.687Z,22.87
2019-02-24T00:56:00.617Z,19.77
2019-02-24T00:58:29.585Z,17.77
2019-02-24T01:00:58.603Z,25.50
2019-02-24T01:03:27.577Z,19.47
2019-02-24T01:05:56.521Z,16.67
2019-02-24T01:08:25.431Z,16.70
2019-02-24T01:10:54.441Z,16.27
2019-02-24T01:13:23.375Z,17.67
2019-02-24T01:15:52.335Z,17.33
2019-02-24T01:18:21.241Z,13.80
2019-02-24T01:20:50.213Z,15.20
2019-02-24T01:23:19.253Z,17.67
2019-02-24T01:25:54.741Z,16.97
2019-02-24T01:28:25.528Z,15.33
2019-02-24T01:30:52.749Z,13.00
2019-02-24T01:33:21.666Z,14.23
2019-02-24T01:35:50.663Z,14.63
2019-02-24T01:38:19.696Z,14.73
2019-02-24T01:40:48.647Z,15.90
2019-02-24T01:43:17.570Z,18.47
2019-02-24T01:45:46.568Z,16.40
2019-02-24T01:48:15.555Z,18.00
2019-02-24T01:50:44.603Z,16.73
2019-02-24T01:53:13.548Z,18.57
2019-02-24T01:55:42.557Z,18.53
2019-02-24T01:58:11.547Z,17.97
2019-02-24T02:00:40.862Z,18.63
2019-02-24T02:03:09.821Z,20.20
2019-02-24T02:05:38.781Z,21.37
2019-02-24T02:08:07.714Z,23.13
2019-02-24T02:10:36.764Z,16.97
2019-02-24T02:13:05.717Z,20.37
2019-02-24T02:15:34.703Z,19.73
2019-02-24T02:18:03.687Z,20.87
2019-02-24T02:20:32.689Z,21.53
2019-02-24T02:23:01.672Z,17.87
2019-02-24T02:25:30.625Z,18.63
2019-02-24T02:28:00.139Z,18.33
2019-02-24T02:30:29.345Z,16.60
2019-02-24T02:32:58.274Z,19.20
2019-02-24T02:35:27.252Z,17.67
2019-02-24T02:37:56.393Z,20.33
2019-02-24T02:40:25.435Z,21.37
2019-02-24T02:42:54.762Z,19.83
2019-02-24T02:45:23.782Z,18.33
2019-02-24T02:47:52.855Z,16.90
2019-02-24T02:50:21.837Z,16.83
2019-02-24T02:52:50.831Z,21.27
2019-02-24T02:55:20.844Z,19.07
2019-02-24T02:57:49.831Z,18.20
2019-02-24T03:00:27.571Z,19.90
2019-02-24T03:02:56.637Z,18.63
2019-02-24T03:05:25.813Z,20.97
2019-02-24T03:08:00.208Z,23.17
2019-02-24T03:10:29.253Z,18.87
2019-02-24T03:12:58.315Z,19.23
2019-02-24T03:15:27.319Z,18.90
2019-02-24T03:17:56.363Z,16.10
2019-02-24T03:20:25.357Z,19.77
2019-02-24T03:22:54.296Z,18.87
2019-02-24T03:25:23.326Z,17.90
2019-02-24T03:27:52.572Z,16.47
2019-02-24T03:30:21.699Z,17.53
2019-02-24T03:32:50.857Z,16.73
2019-02-24T03:35:20.099Z,17.73
2019-02-24T03:37:49.275Z,17.53
2019-02-24T03:40:18.295Z,17.20
2019-02-24T03:42:47.230Z,18.50
2019-02-24T03:45:16.162Z,14.10
2019-02-24T03:47:45.153Z,14.77
2019-02-24T03:50:14.184Z,14.60
2019-02-24T03:52:43.209Z,17.27
2019-02-24T03:55:12.174Z,17.00
2019-02-24T03:57:41.137Z,15.13
2019-02-24T04:00:10.147Z,15.20
2019-02-24T04:02:39.167Z,16.93
2019-02-24T04:05:08.131Z,15.30
2019-02-24T04:07:37.105Z,15.67
2019-02-24T04:10:06.612Z,15.07
2019-02-24T04:12:35.567Z,15.30
2019-02-24T04:15:04.981Z,14.67
2019-02-24T04:17:33.968Z,13.57
2019-02-24T04:20:02.930Z,15.37
2019-02-24T04:22:31.896Z,13.80
2019-02-24T04:25:00.966Z,14.60
2019-02-24T04:27:29.965Z,16.87
2019-02-24T04:29:58.999Z,15.40
2019-02-24T04:32:28.050Z,13.63
2019-02-24T04:34:56.991Z,16.57
2019-02-24T04:37:25.965Z,16.13
2019-02-24T04:39:54.903Z,14.53
2019-02-24T04:42:23.894Z,16.60
2019-02-24T04:44:52.921Z,14.80
2019-02-24T04:47:21.915Z,15.43
2019-02-24T04:49:51.150Z,13.70
2019-02-24T04:52:20.140Z,16.50
2019-02-24T04:54:49.113Z,13.30
2019-02-24T04:57:18.154Z,16.10
2019-02-24T04:59:47.287Z,16.27
2019-02-24T05:02:16.381Z,14.40
2019-02-24T05:04:45.285Z,14.70
2019-02-24T05:07:14.402Z,13.43
2019-02-24T05:09:43.403Z,15.50
2019-02-24T05:12:12.404Z,14.80
2019-02-24T05:14:41.385Z,17.17
2019-02-24T05:17:10.404Z,14.57
2019-02-24T05:19:39.310Z,16.80
2019-02-24T05:22:08.308Z,14.90
2019-02-24T05:24:37.198Z,13.63
2019-02-24T05:27:06.168Z,15.70
2019-02-24T05:29:44.816Z,15.13
2019-02-24T05:32:04.060Z,16.00
2019-02-24T05:34:33.073Z,15.33
2019-02-24T05:37:02.013Z,16.87
2019-02-24T05:39:31.001Z,15.87
2019-02-24T05:42:06.866Z,13.87
2019-02-24T05:44:35.866Z,14.63
2019-02-24T05:47:04.833Z,15.03
2019-02-24T05:49:33.771Z,15.30
2019-02-24T05:52:02.737Z,16.90
2019-02-24T05:54:31.664Z,14.53
2019-02-24T05:57:00.683Z,15.80
2019-02-24T05:59:29.665Z,14.57
2019-02-24T06:01:58.587Z,14.53
2019-02-24T06:04:27.569Z,14.37
2019-02-24T06:06:56.568Z,16.03
2019-02-24T06:09:25.551Z,15.63
2019-02-24T06:11:54.811Z,14.73
2019-02-24T06:14:23.803Z,15.83
2019-02-24T06:16:52.881Z,16.47
2019-02-24T06:19:22.082Z,14.80
2019-02-24T06:21:51.149Z,21.13
2019-02-24T06:24:20.113Z,19.17
2019-02-24T06:26:49.548Z,17.53
2019-02-24T06:29:18.507Z,16.70
2019-02-24T06:31:48.659Z,17.43
2019-02-24T06:34:17.759Z,15.43
2019-02-24T06:36:46.974Z,16.53
2019-02-24T06:39:16.000Z,15.93
2019-02-24T06:41:45.007Z,15.93
2019-02-24T06:44:20.249Z,15.70
2019-02-24T06:46:49.375Z,19.40
2019-02-24T06:49:18.593Z,17.60
2019-02-24T06:51:47.668Z,14.60
2019-02-24T06:54:16.699Z,17.30
2019-02-24T06:56:45.845Z,18.07
2019-02-24T06:59:15.315Z,16.47
2019-02-24T07:01:44.348Z,19.27
2019-02-24T07:04:13.545Z,16.40
2019-02-24T07:06:42.843Z,17.67
2019-02-24T07:09:12.497Z,14.90
2019-02-24T07:11:42.758Z,16.27
2019-02-24T07:14:11.848Z,17.10
2019-02-24T07:16:40.859Z,16.50
2019-02-24T07:19:10.006Z,16.93
2019-02-24T07:21:39.634Z,17.87
2019-02-24T07:24:08.633Z,15.70
2019-02-24T07:26:37.759Z,14.50
2019-02-24T07:29:06.949Z,15.53
2019-02-24T07:31:36.730Z,17.00
2019-02-24T07:34:06.007Z,16.47
2019-02-24T07:36:35.677Z,15.00
2019-02-24T07:39:05.531Z,15.43
2019-02-24T07:41:36.228Z,17.57
2019-02-24T07:44:06.614Z,22.70
2019-02-24T07:46:36.144Z,17.13
2019-02-24T07:49:05.174Z,16.93
2019-02-24T07:51:34.276Z,13.70
2019-02-24T07:54:04.457Z,16.03
2019-02-24T07:56:33.847Z,16.87
2019-02-24T07:59:03.645Z,16.67
2019-02-24T08:01:33.362Z,15.80
2019-02-24T08:04:02.419Z,17.17
2019-02-24T08:06:32.311Z,15.67
2019-02-24T08:09:01.396Z,17.50
2019-02-24T08:11:31.102Z,16.73
2019-02-24T08:14:00.384Z,16.23
2019-02-24T08:16:29.481Z,15.13
2019-02-24T08:18:58.767Z,15.17
2019-02-24T08:21:28.001Z,14.87
2019-02-24T08:23:57.617Z,17.63
2019-02-24T08:26:27.143Z,16.43
2019-02-24T08:28:56.176Z,17.00
2019-02-24T08:31:25.299Z,20.67
2019-02-24T08:33:55.665Z,17.23
2019-02-24T08:36:24.968Z,15.73
2019-02-24T08:38:54.307Z,16.20
2019-02-24T08:41:23.476Z,14.77
2019-02-24T08:43:52.701Z,16.40
2019-02-24T08:46:21.921Z,16.63
2019-02-24T08:48:50.967Z,14.10
2019-02-24T08:51:20.055Z,16.30
2019-02-24T08:53:50.065Z,17.23
2019-02-24T08:56:19.187Z,15.80
2019-02-24T08:58:48.604Z,14.00
2019-02-24T09:01:17.782Z,13.43
2019-02-24T09:03:48.057Z,13.40
2019-02-24T12:11:19.116Z,10.65
2019-02-24T12:13:48.093Z,8.65
2019-02-24T12:16:17.146Z,8.63
2019-02-24T12:18:46.330Z,6.90
2019-02-24T12:21:15.428Z,7.37
2019-02-24T12:23:44.510Z,6.12
2019-02-24T12:26:13.798Z,6.97
2019-02-24T12:28:42.903Z,9.03
2019-02-24T12:31:11.935Z,5.10
2019-02-24T12:33:40.961Z,4.72
2019-02-24T12:36:09.986Z,5.95
2019-02-24T12:38:39.121Z,5.87
2019-02-24T12:41:08.093Z,5.53
2019-02-24T12:43:37.104Z,5.85
2019-02-24T12:46:06.074Z,7.00
2019-02-24T12:48:35.076Z,5.47
2019-02-24T12:51:04.132Z,5.08
2019-02-24T12:53:33.208Z,5.03
2019-02-24T12:56:02.584Z,5.45
2019-02-24T12:58:31.834Z,5.45
2019-02-24T13:01:00.848Z,5.85
2019-02-24T13:03:29.896Z,5.20
2019-02-24T13:05:58.940Z,5.50
2019-02-24T13:08:27.908Z,5.92
2019-02-24T13:10:56.895Z,8.28
2019-02-24T13:13:26.045Z,7.20
2019-02-24T13:15:55.061Z,8.43
2019-02-24T13:18:24.094Z,6.67
2019-02-24T13:20:53.031Z,6.75
2019-02-24T13:23:21.983Z,10.08
2019-02-24T13:25:50.899Z,8.33
2019-02-24T13:28:19.969Z,11.25
2019-02-24T13:30:49.058Z,6.53
2019-02-24T13:33:18.148Z,9.60
2019-02-24T13:35:47.304Z,6.45
2019-02-24T13:38:16.372Z,10.55
2019-02-24T13:40:45.414Z,6.90
2019-02-24T13:43:14.478Z,6.35
2019-02-24T13:45:43.764Z,6.45
2019-02-24T13:48:12.782Z,39.05
2019-02-24T13:50:42.036Z,30.82
2019-02-24T13:53:11.171Z,23.50
2019-02-24T13:55:40.326Z,26.97
2019-02-24T13:58:09.728Z,33.20
2019-02-24T14:00:38.775Z,20.25
2019-02-24T14:03:07.806Z,5.87
2019-02-24T14:05:36.963Z,6.17
2019-02-24T14:08:06.039Z,6.60
2019-02-24T14:10:35.014Z,8.98
2019-02-24T14:13:05.353Z,6.33
2019-02-24T14:15:34.587Z,27.42
2019-02-24T14:18:03.720Z,8.28
2019-02-24T14:20:32.696Z,6.62
2019-02-24T14:23:01.677Z,8.10
2019-02-24T14:25:30.846Z,7.45
2019-02-24T14:27:59.909Z,5.83
2019-02-24T14:30:28.879Z,6.00
2019-02-24T14:32:57.824Z,5.10
2019-02-24T14:35:26.828Z,6.65
2019-02-24T14:37:55.789Z,7.15
2019-02-24T14:40:24.754Z,9.90
2019-02-24T14:42:53.800Z,6.12
2019-02-24T14:45:22.865Z,5.10
2019-02-24T14:47:51.919Z,6.50
2019-02-24T14:50:20.943Z,13.87
2019-02-24T14:52:50.036Z,6.80
2019-02-24T14:55:19.037Z,9.87
2019-02-24T14:57:48.070Z,5.80
2019-02-24T15:00:17.171Z,5.30
2019-02-24T15:02:46.388Z,6.43
2019-02-24T15:05:16.741Z,4.97
2019-02-24T15:07:44.297Z,5.80
2019-02-24T15:10:14.467Z,6.50
2019-02-24T15:12:43.575Z,8.77
2019-02-24T15:15:14.740Z,6.40
2019-02-24T15:17:43.751Z,7.10
2019-02-24T15:20:15.982Z,5.30
2019-02-24T15:22:45.016Z,10.40
2019-02-24T15:25:15.259Z,5.80
2019-02-24T15:27:44.504Z,6.13
2019-02-24T15:30:17.319Z,6.27
2019-02-24T15:32:51.605Z,5.57
2019-02-24T15:35:15.306Z,6.13
2019-02-24T15:37:44.601Z,6.73
2019-02-24T15:40:13.766Z,5.03
2019-02-24T15:42:42.891Z,5.80
2019-02-24T15:45:12.197Z,7.37
2019-02-24T15:47:41.257Z,6.83
2019-02-24T15:50:10.570Z,5.77
2019-02-24T15:52:39.916Z,5.33
2019-02-24T15:55:09.121Z,6.63
2019-02-24T15:57:38.195Z,4.37
2019-02-24T16:00:09.375Z,7.90
2019-02-24T16:02:38.696Z,5.83
2019-02-24T16:05:08.439Z,5.17
2019-02-24T16:07:37.516Z,5.30
2019-02-24T16:10:07.978Z,5.87
2019-02-24T16:12:37.239Z,4.73
2019-02-24T16:15:08.649Z,5.70
2019-02-24T16:17:37.874Z,4.83
2019-02-24T16:20:11.000Z,5.03
2019-02-24T16:22:40.145Z,5.10
2019-02-24T16:25:09.394Z,5.67
2019-02-24T16:27:38.397Z,7.03
2019-02-24T16:30:09.314Z,7.53
2019-02-24T16:32:38.467Z,9.57
2019-02-24T16:35:09.833Z,9.40
2019-02-24T16:37:39.157Z,9.13
2019-02-24T16:40:11.279Z,6.30
2019-02-24T16:42:40.302Z,5.73
2019-02-24T16:45:10.794Z,7.53
2019-02-24T16:47:40.048Z,5.77
2019-02-24T16:50:10.927Z,5.83
2019-02-24T16:52:39.973Z,10.87
2019-02-24T16:55:10.239Z,7.30
2019-02-24T16:57:39.640Z,9.57
2019-02-24T17:00:11.515Z,5.90
2019-02-24T17:02:40.567Z,7.63
2019-02-24T17:05:09.607Z,10.20
2019-02-24T17:07:38.598Z,9.77
2019-02-24T17:10:08.300Z,11.13
2019-02-24T17:12:37.493Z,7.70
2019-02-24T17:15:09.096Z,10.37
2019-02-24T17:17:38.295Z,11.70
2019-02-24T17:20:09.941Z,10.60
2019-02-24T17:22:39.204Z,9.33
2019-02-24T17:25:08.344Z,7.93
2019-02-24T17:27:37.447Z,11.97
2019-02-24T17:30:07.614Z,9.50
2019-02-24T17:32:36.725Z,9.60
2019-02-24T17:35:05.874Z,8.70
2019-02-24T17:37:34.922Z,8.97
2019-02-24T17:40:04.459Z,10.50
2019-02-24T17:42:33.675Z,8.07
2019-02-24T17:45:02.695Z,13.53
2019-02-24T17:47:31.738Z,13.80
2019-02-24T17:50:00.799Z,11.93
2019-02-24T17:52:29.883Z,13.50
2019-02-24T17:54:58.997Z,11.37
2019-02-24T17:57:28.591Z,15.03
2019-02-24T17:59:57.595Z,13.87
2019-02-24T18:02:26.882Z,16.50
2019-02-24T18:04:55.989Z,12.00
2019-02-24T18:07:24.964Z,11.77
2019-02-24T18:09:54.289Z,12.00
2019-02-24T18:12:23.332Z,13.37
2019-02-24T18:14:52.834Z,12.37
2019-02-24T18:17:21.896Z,11.33
2019-02-24T18:19:51.095Z,13.53
2019-02-24T18:22:20.264Z,19.83
2019-02-24T18:24:49.459Z,17.83
2019-02-24T18:27:18.586Z,12.27
2019-02-24T18:29:47.585Z,12.70
2019-02-24T18:32:16.824Z,11.97
2019-02-24T18:34:45.835Z,15.40
2019-02-24T18:37:14.981Z,15.10
2019-02-24T18:39:44.010Z,15.53
2019-02-24T18:42:13.102Z,13.27
2019-02-24T18:44:42.478Z,13.63
2019-02-24T18:47:11.681Z,13.37
2019-02-24T18:49:40.703Z,14.50
2019-02-24T18:52:09.866Z,15.20
2019-02-24T18:54:39.116Z,11.13
2019-02-24T18:57:08.386Z,15.07
2019-02-24T18:59:37.465Z,20.63
2019-02-24T19:02:06.434Z,14.50
2019-02-24T19:04:35.765Z,15.80
2019-02-24T19:07:10.218Z,17.93
2019-02-24T19:09:39.316Z,16.30
2019-02-24T19:12:08.475Z,16.43
2019-02-24T19:14:37.479Z,16.73
2019-02-24T19:17:06.681Z,17.87
2019-02-24T19:19:36.788Z,16.47
2019-02-24T19:22:07.257Z,18.90
2019-02-24T19:24:34.946Z,18.40
2019-02-24T19:27:04.024Z,19.63
2019-02-24T19:29:33.098Z,16.93
2019-02-24T19:32:02.108Z,18.43
2019-02-24T19:34:31.128Z,17.83
2019-02-24T19:37:00.190Z,19.07
2019-02-24T19:39:29.932Z,14.83
2019-02-24T19:41:59.104Z,16.40
2019-02-24T19:44:28.174Z,17.63
2019-02-24T19:46:57.123Z,16.30
2019-02-24T19:49:32.782Z,15.33
2019-02-24T19:52:01.802Z,14.63
2019-02-24T19:54:30.802Z,15.50
2019-02-24T19:56:59.939Z,15.20
2019-02-24T19:59:28.915Z,15.17
2019-02-24T20:01:57.862Z,14.33
2019-02-24T20:04:26.839Z,16.40
2019-02-24T20:06:55.851Z,16.70
2019-02-24T20:09:24.913Z,17.10
2019-02-24T20:11:54.501Z,20.53
2019-02-24T20:14:23.620Z,18.53
2019-02-24T20:16:52.617Z,22.47
2019-02-24T20:19:21.659Z,17.70
2019-02-24T20:21:50.702Z,14.17
2019-02-24T20:24:19.768Z,16.97
2019-02-24T20:26:48.784Z,16.83
2019-02-24T20:29:17.788Z,18.23
2019-02-24T20:31:47.024Z,16.60
2019-02-24T20:34:25.022Z,18.53
2019-02-24T20:36:45.655Z,16.10
2019-02-24T20:39:17.128Z,16.23
2019-02-24T20:41:47.300Z,16.13
2019-02-24T20:44:16.464Z,18.13
2019-02-24T20:46:46.016Z,14.20
2019-02-24T20:49:15.373Z,15.27
2019-02-24T20:51:45.166Z,14.83
2019-02-24T20:54:14.274Z,14.17
2019-02-24T20:56:43.357Z,14.33
2019-02-24T20:59:12.482Z,19.60
2019-02-24T21:01:41.642Z,17.13
2019-02-24T21:04:11.366Z,13.10
2019-02-24T21:06:41.447Z,15.83
2019-02-24T21:09:14.983Z,16.17
2019-02-24T21:11:46.293Z,17.63
2019-02-24T21:14:15.846Z,15.33
2019-02-24T21:16:46.775Z,17.97
2019-02-24T21:19:17.180Z,17.23
2019-02-24T21:21:48.084Z,17.93
2019-02-24T21:24:18.365Z,18.70
2019-02-24T21:26:48.874Z,19.10
2019-02-24T21:29:20.389Z,16.27
2019-02-24T21:31:52.016Z,15.07
2019-02-24T21:34:23.459Z,15.80
2019-02-24T21:36:52.558Z,15.63
2019-02-24T21:39:21.593Z,15.73
2019-02-24T21:41:51.306Z,19.60
2019-02-24T21:44:20.502Z,16.73
2019-02-24T21:46:49.702Z,18.10
2019-02-24T21:49:18.826Z,21.07
2019-02-24T21:51:47.859Z,18.03
2019-02-24T21:54:16.868Z,17.97
2019-02-24T21:56:45.896Z,19.33
2019-02-24T21:59:15.312Z,20.10
2019-02-24T22:01:45.047Z,17.27
2019-02-24T22:04:14.164Z,18.60
2019-02-24T22:06:43.252Z,19.53
2019-02-24T22:09:12.537Z,18.37
2019-02-24T22:11:41.563Z,18.27
2019-02-24T22:14:17.424Z,16.80
2019-02-24T22:16:46.400Z,16.57
2019-02-24T22:19:16.212Z,16.10
2019-02-24T22:21:48.301Z,16.77
2019-02-24T22:24:17.362Z,19.63
2019-02-24T22:26:46.502Z,20.50
2019-02-24T22:29:15.463Z,16.43
2019-02-24T22:31:44.383Z,20.23
2019-02-24T22:34:13.351Z,16.63
2019-02-24T22:36:42.313Z,15.93
2019-02-24T22:39:11.352Z,18.37
2019-02-24T22:41:40.404Z,22.13
2019-02-24T22:44:09.338Z,19.40
2019-02-24T22:46:38.273Z,19.27
2019-02-24T22:49:07.267Z,18.90
2019-02-24T22:51:36.294Z,21.23
2019-02-24T22:54:05.486Z,17.30
2019-02-24T22:56:34.471Z,16.83
2019-02-24T22:59:03.516Z,15.43
2019-02-24T23:01:36.365Z,15.40
2019-02-24T23:04:05.445Z,15.33
2019-02-24T23:06:34.457Z,18.53
2019-02-24T23:09:03.690Z,14.93
2019-02-24T23:11:32.604Z,19.10
2019-02-24T23:14:01.710Z,13.97
2019-02-24T23:16:30.685Z,16.43
2019-02-24T23:19:02.366Z,16.27
2019-02-24T23:21:31.368Z,16.90
2019-02-24T23:24:00.288Z,16.80
2019-02-24T23:26:29.234Z,18.60
2019-02-24T23:28:58.410Z,17.03
2019-02-24T23:31:27.319Z,15.97
2019-02-24T23:33:56.232Z,19.50
2019-02-24T23:36:25.545Z,16.50
2019-02-24T23:38:54.812Z,15.20
2019-02-24T23:41:23.846Z,16.83
2019-02-24T23:43:52.908Z,17.97
2019-02-24T23:46:21.847Z,14.57
2019-02-24T23:48:50.836Z,16.13
2019-02-24T23:51:19.848Z,21.43
2019-02-24T23:53:49.007Z,15.70
2019-02-24T23:56:17.951Z,18.93
2019-02-24T23:58:46.966Z,15.07
